Time;durP1;ratioP1;P1;durP2;ratioP2;P2;SDS_P1;SDS_P2;PMS_P1;PMS_P2;Temp;Humidity;BMP_temperature;BMP_pressure;BME280_temperature;BME280_humidity;BME280_pressure;Samples;Min_cycle;Max_cycle;Signal;HPM_P1;HPM_P2
2022/04/23 00:02:23;;;;;;;9.60;6.70;;;22.30;61.00;;;;;;220918;1267;25778;-51
2022/04/23 00:07:27;;;;;;;10.20;6.30;;;22.60;61.00;;;;;;220970;1267;24212;-54
2022/04/23 00:12:31;;;;;;;10.00;6.80;;;22.80;60.50;;;;;;220620;1267;24278;-54
2022/04/23 00:17:36;;;;;;;9.80;5.90;;;22.90;59.00;;;;;;220681;1267;22565;-54
2022/04/23 00:22:40;;;;;;;9.50;5.30;;;23.00;60.30;;;;;;220494;1267;22724;-54
2022/04/23 00:27:44;;;;;;;9.00;6.20;;;23.10;59.50;;;;;;220646;1267;25261;-54
2022/04/23 00:32:48;;;;;;;10.00;6.90;;;23.20;59.30;;;;;;220231;1267;22665;-53
2022/04/23 00:37:52;;;;;;;9.20;5.90;;;23.30;59.50;;;;;;220721;1266;22615;-54
2022/04/23 00:42:58;;;;;;;8.90;6.00;;;23.40;59.80;;;;;;220581;1267;22861;-53
2022/04/23 00:48:02;;;;;;;9.00;6.40;;;23.40;58.10;;;;;;220240;1267;22654;-56
2022/04/23 00:53:06;;;;;;;8.70;5.60;;;23.50;57.70;;;;;;220809;1267;25567;-54
2022/04/23 00:58:10;;;;;;;8.40;5.90;;;23.60;59.00;;;;;;220402;1268;23328;-54
2022/04/23 01:03:14;;;;;;;8.40;5.50;;;23.50;58.70;;;;;;220386;1267;22574;-55
2022/04/23 01:08:19;;;;;;;8.70;6.10;;;23.50;59.00;;;;;;220218;1270;22691;-54
2022/04/23 01:13:25;;;;;;;8.60;5.70;;;23.50;58.50;;;;;;220489;1267;24469;-55
2022/04/23 01:18:29;;;;;;;9.20;5.70;;;23.50;59.00;;;;;;221001;1267;24419;-55
2022/04/23 01:23:33;;;;;;;7.90;5.20;;;23.40;58.40;;;;;;220813;1267;25367;-53
2022/04/23 01:28:42;;;;;;;8.60;6.00;;;23.40;58.80;;;;;;220387;1267;22635;-55
2022/04/23 01:33:46;;;;;;;8.70;5.50;;;23.30;59.80;;;;;;220971;1267;22544;-54
2022/04/23 01:38:54;;;;;;;8.40;6.00;;;23.30;58.30;;;;;;220700;1267;24433;-54
2022/04/23 01:44:06;;;;;;;8.20;5.50;;;23.30;58.80;;;;;;220976;1267;22564;-53
2022/04/23 01:49:22;;;;;;;11.30;6.40;;;23.30;59.50;;;;;;220486;1267;24858;-55
2022/04/23 01:54:26;;;;;;;8.80;6.20;;;23.30;58.60;;;;;;220268;1267;23393;-50
2022/04/23 01:59:30;;;;;;;8.30;5.30;;;23.20;58.10;;;;;;220319;1267;24106;-53
2022/04/23 02:04:33;;;;;;;7.10;4.90;;;23.30;58.60;;;;;;220602;1267;22619;-55
2022/04/23 02:09:38;;;;;;;6.80;5.40;;;23.50;57.50;;;;;;220439;1267;22627;-55
2022/04/23 02:14:41;;;;;;;7.80;5.10;;;23.50;58.10;;;;;;220532;1267;22534;-55
2022/04/23 02:19:45;;;;;;;8.90;5.40;;;23.50;56.40;;;;;;220475;1268;22574;-54
2022/04/23 02:24:50;;;;;;;7.70;5.20;;;23.60;57.60;;;;;;220613;1268;22617;-56
2022/04/23 02:29:54;;;;;;;7.60;4.80;;;23.70;57.30;;;;;;220814;1267;22534;-53
2022/04/23 02:34:58;;;;;;;7.10;5.30;;;23.70;56.70;;;;;;220699;1267;25285;-53
2022/04/23 02:40:03;;;;;;;8.10;5.50;;;23.70;56.70;;;;;;221154;1267;22634;-56
2022/04/23 02:45:09;;;;;;;8.00;5.40;;;23.70;56.80;;;;;;220488;1267;22702;-54
2022/04/23 02:50:14;;;;;;;6.80;4.60;;;23.60;56.90;;;;;;220967;1267;22707;-55
2022/04/23 02:55:18;;;;;;;7.00;4.60;;;23.60;57.10;;;;;;220661;1267;25357;-55
2022/04/23 03:00:21;;;;;;;7.20;4.90;;;23.50;57.00;;;;;;220791;1267;22656;-55
2022/04/23 03:05:26;;;;;;;7.80;5.30;;;23.40;57.00;;;;;;220418;1268;24640;-56
2022/04/23 03:10:30;;;;;;;6.70;4.60;;;23.30;57.00;;;;;;220677;1268;22744;-55
2022/04/23 03:15:35;;;;;;;6.90;4.80;;;23.20;57.20;;;;;;220542;1267;24114;-55
2022/04/23 03:20:43;;;;;;;6.80;4.50;;;23.10;56.90;;;;;;220878;1268;24269;-57
2022/04/23 03:25:47;;;;;;;8.40;5.20;;;23.00;57.40;;;;;;220356;1267;24388;-54
2022/04/23 03:30:51;;;;;;;6.10;4.80;;;22.90;58.50;;;;;;220513;1268;24038;-50
2022/04/23 03:35:54;;;;;;;6.90;5.10;;;22.90;59.00;;;;;;220831;1270;22711;-52
2022/04/23 03:40:58;;;;;;;6.00;4.60;;;22.80;58.40;;;;;;220921;1268;22569;-54
2022/04/23 03:46:02;;;;;;;7.60;5.40;;;22.70;58.20;;;;;;220337;1267;24290;-55
2022/04/23 03:51:06;;;;;;;7.20;4.90;;;22.70;57.60;;;;;;220208;1268;22756;-54
2022/04/23 03:56:10;;;;;;;7.80;5.00;;;22.60;57.30;;;;;;220389;1267;24466;-52
2022/04/23 04:01:13;;;;;;;7.10;5.00;;;22.50;58.20;;;;;;220574;1268;24364;-54
2022/04/23 04:06:17;;;;;;;6.70;4.70;;;22.50;57.90;;;;;;220507;1268;24422;-54
2022/04/23 04:11:22;;;;;;;7.70;4.60;;;22.40;58.10;;;;;;220305;1267;22554;-52
2022/04/23 04:16:31;;;;;;;7.50;5.60;;;22.40;58.60;;;;;;220211;1268;22540;-53
2022/04/23 04:21:35;;;;;;;6.00;4.10;;;22.30;58.00;;;;;;220036;1268;478511;-55
2022/04/23 04:26:44;;;;;;;5.80;4.20;;;22.30;58.70;;;;;;220779;1267;23128;-56
2022/04/23 04:31:49;;;;;;;7.90;5.00;;;22.30;57.50;;;;;;220581;1270;25292;-55
2022/04/23 04:37:03;;;;;;;6.30;4.30;;;22.30;57.90;;;;;;220947;1267;24334;-51
2022/04/23 04:42:08;;;;;;;6.80;4.20;;;22.50;56.30;;;;;;220576;1267;22598;-51
2022/04/23 04:47:12;;;;;;;8.20;4.80;;;22.90;56.20;;;;;;220884;1268;24251;-52
2022/04/23 04:52:16;;;;;;;6.50;4.30;;;23.00;56.20;;;;;;220887;1270;24213;-54
2022/04/23 04:57:19;;;;;;;6.80;4.20;;;23.20;55.70;;;;;;220853;1270;22569;-56
2022/04/23 05:02:25;;;;;;;4.60;3.60;;;23.20;54.90;;;;;;220965;1267;25637;-54
2022/04/23 05:07:29;;;;;;;5.70;3.80;;;23.30;54.60;;;;;;220544;1267;24281;-55
2022/04/23 05:12:33;;;;;;;5.90;4.00;;;23.40;54.50;;;;;;220522;1267;22537;-56
2022/04/23 05:17:39;;;;;;;6.80;4.50;;;23.50;54.10;;;;;;220670;1268;24237;-52
2022/04/23 05:22:43;;;;;;;6.60;3.90;;;23.50;54.20;;;;;;220832;1268;22777;-52
2022/04/23 05:27:51;;;;;;;5.30;3.90;;;23.60;54.20;;;;;;220786;1268;22547;-55
2022/04/23 05:32:54;;;;;;;5.80;4.10;;;23.60;54.30;;;;;;220547;1268;25460;-53
2022/04/23 05:37:58;;;;;;;6.00;3.80;;;23.60;52.80;;;;;;220330;1268;22538;-52
2022/04/23 05:43:02;;;;;;;6.70;4.30;;;23.60;54.20;;;;;;220722;1270;23064;-55
2022/04/23 05:48:06;;;;;;;5.80;3.80;;;23.60;54.00;;;;;;220499;1270;23380;-53
2022/04/23 05:53:11;;;;;;;5.70;3.50;;;23.50;53.90;;;;;;220715;1268;22556;-56
2022/04/23 05:58:15;;;;;;;6.40;4.30;;;23.50;54.40;;;;;;220537;1268;24371;-53
2022/04/23 06:03:20;;;;;;;5.30;3.70;;;23.40;54.90;;;;;;220796;1268;24419;-54
2022/04/23 06:08:24;;;;;;;5.20;3.70;;;23.50;54.40;;;;;;220837;1268;22883;-50
2022/04/23 06:13:27;;;;;;;5.30;3.60;;;23.50;54.50;;;;;;220641;1269;25602;-53
2022/04/23 06:18:31;;;;;;;5.80;3.50;;;23.50;54.40;;;;;;220535;1270;24419;-54
2022/04/23 06:23:35;;;;;;;6.10;4.10;;;23.50;54.40;;;;;;220559;1267;22694;-53
2022/04/23 06:28:39;;;;;;;6.30;3.80;;;23.40;54.40;;;;;;220397;1267;24216;-61
2022/04/23 06:33:43;;;;;;;6.30;4.00;;;23.40;55.10;;;;;;220159;1268;25606;-60
2022/04/23 06:38:47;;;;;;;8.50;3.70;;;23.40;54.60;;;;;;220657;1268;22525;-60
2022/04/23 06:43:56;;;;;;;6.10;3.60;;;23.50;54.00;;;;;;220592;1269;22781;-60
2022/04/23 06:49:05;;;;;;;5.40;3.80;;;23.40;54.30;;;;;;220705;1268;23939;-62
2022/04/23 06:54:09;;;;;;;6.70;3.80;;;23.40;54.20;;;;;;220825;1268;23935;-58
2022/04/23 06:59:12;;;;;;;5.20;3.70;;;23.40;54.70;;;;;;220506;1270;22793;-60
2022/04/23 07:04:16;;;;;;;5.00;3.70;;;23.30;53.80;;;;;;220668;1268;22831;-60
2022/04/23 07:09:20;;;;;;;5.80;4.00;;;23.40;53.60;;;;;;220604;1268;23909;-60
2022/04/23 07:14:25;;;;;;;5.50;3.80;;;23.40;54.10;;;;;;220629;1269;23151;-60
2022/04/23 07:19:30;;;;;;;5.20;3.60;;;23.40;54.20;;;;;;220555;1268;24399;-60
2022/04/23 07:24:34;;;;;;;5.40;3.60;;;23.40;53.50;;;;;;220734;1269;24414;-59
2022/04/23 07:29:41;;;;;;;5.10;3.70;;;23.40;53.70;;;;;;220561;1270;22798;-63
2022/04/23 07:40:10;;;;;;;5.70;3.50;;;23.40;53.30;;;;;;220545;1268;26093;-61
2022/04/23 07:45:14;;;;;;;4.80;3.20;;;23.40;53.70;;;;;;220904;1267;22580;-60
2022/04/23 07:50:18;;;;;;;4.90;3.20;;;23.40;53.30;;;;;;220841;1268;25378;-60
2022/04/23 07:55:22;;;;;;;4.60;3.50;;;23.40;53.00;;;;;;220984;1268;24370;-59
2022/04/23 08:00:28;;;;;;;6.70;3.50;;;23.40;53.30;;;;;;221080;1268;25538;-61
2022/04/23 08:05:32;;;;;;;5.40;3.60;;;23.40;52.90;;;;;;220676;1268;24437;-61
2022/04/23 08:10:39;;;;;;;4.80;3.30;;;23.40;53.40;;;;;;220652;1268;24278;-58
2022/04/23 08:15:43;;;;;;;8.90;3.30;;;23.40;52.80;;;;;;220399;1267;22614;-58
2022/04/23 08:20:47;;;;;;;6.00;3.40;;;23.40;53.30;;;;;;220704;1268;24056;-58
2022/04/23 08:25:55;;;;;;;6.40;3.50;;;23.40;53.90;;;;;;220735;1268;22599;-60
2022/04/23 08:31:00;;;;;;;6.40;3.10;;;23.50;53.50;;;;;;220428;1268;24292;-60
2022/04/23 08:36:04;;;;;;;5.40;3.10;;;23.40;53.50;;;;;;220476;1268;25711;-59
2022/04/23 08:41:09;;;;;;;6.30;3.20;;;23.40;53.60;;;;;;220540;1268;24418;-59
2022/04/23 08:46:16;;;;;;;8.10;3.70;;;23.40;53.80;;;;;;220611;1270;22838;-59
2022/04/23 08:51:23;;;;;;;4.60;3.00;;;23.40;53.80;;;;;;220438;1268;25302;-59
2022/04/23 08:56:26;;;;;;;7.40;2.90;;;23.30;53.70;;;;;;220455;1267;25507;-61
2022/04/23 09:01:31;;;;;;;5.50;3.40;;;23.30;54.60;;;;;;220820;1268;22834;-60
2022/04/23 09:06:40;;;;;;;7.90;3.30;;;23.30;54.10;;;;;;220981;1268;24022;-59
2022/04/23 09:11:48;;;;;;;4.90;3.10;;;23.30;54.30;;;;;;220665;1268;25510;-59
2022/04/23 09:27:47;;;;;;;4.30;3.70;;;23.20;48.60;;;;;;220469;1268;22691;-59
2022/04/23 09:33:00;;;;;;;4.90;3.40;;;23.20;46.00;;;;;;220425;1268;22731;-56
2022/04/23 09:38:28;;;;;;;5.10;3.80;;;23.10;45.60;;;;;;220408;1267;22537;-59
2022/04/23 09:43:32;;;;;;;6.90;4.20;;;23.20;45.10;;;;;;220712;1267;25243;-58
2022/04/23 09:48:40;;;;;;;5.40;3.80;;;23.10;44.10;;;;;;220568;1267;24297;-58
2022/04/23 09:53:46;;;;;;;7.30;4.00;;;23.20;43.80;;;;;;220335;1267;24238;-59
2022/04/23 09:58:51;;;;;;;6.80;4.10;;;23.20;44.20;;;;;;220205;1267;23194;-58
2022/04/23 10:03:55;;;;;;;7.10;3.40;;;23.20;44.80;;;;;;220281;1267;22670;-56
2022/04/23 10:09:00;;;;;;;5.30;3.70;;;23.20;45.40;;;;;;220520;1267;22537;-58
2022/04/23 10:14:06;;;;;;;6.50;3.20;;;23.20;45.70;;;;;;220585;1268;23519;-58
2022/04/23 10:19:11;;;;;;;7.80;3.40;;;23.20;46.20;;;;;;220227;1267;22602;-58
2022/04/23 10:24:40;;;;;;;5.20;3.50;;;23.20;46.60;;;;;;220495;1266;25429;-57
2022/04/23 10:29:46;;;;;;;7.10;3.60;;;23.20;47.50;;;;;;220613;1267;24366;-58
2022/04/23 10:34:51;;;;;;;9.00;3.30;;;23.20;47.30;;;;;;220495;1268;23056;-59
2022/04/23 10:39:56;;;;;;;5.10;3.00;;;23.20;47.60;;;;;;220615;1267;22554;-59
2022/04/23 10:45:04;;;;;;;7.30;3.90;;;23.20;47.80;;;;;;220536;1267;22554;-59
2022/04/23 10:50:15;;;;;;;6.50;3.20;;;23.30;48.00;;;;;;220601;1267;22581;-60
2022/04/23 10:55:20;;;;;;;5.00;3.40;;;23.30;48.00;;;;;;220623;1267;22553;-59
2022/04/23 11:00:45;;;;;;;9.80;3.30;;;23.30;48.20;;;;;;220274;1267;25299;-59
2022/04/23 11:16:59;;;;;;;5.20;3.30;;;23.30;48.30;;;;;;220898;1267;22745;-60
2022/04/23 11:22:04;;;;;;;5.30;3.00;;;23.30;48.30;;;;;;220537;1267;25660;-58
2022/04/23 11:27:08;;;;;;;3.80;3.00;;;23.30;48.20;;;;;;220765;1267;25541;-61
2022/04/23 11:32:12;;;;;;;4.80;3.50;;;23.40;48.40;;;;;;220369;1268;22598;-63
2022/04/23 11:37:34;;;;;;;5.40;3.10;;;23.30;48.40;;;;;;220699;1267;24531;-60
2022/04/23 11:42:43;;;;;;;3.60;2.90;;;23.40;48.40;;;;;;220563;1267;24202;-62
2022/04/23 11:47:51;;;;;;;3.90;3.10;;;23.40;48.50;;;;;;220624;1268;26798;-59
2022/04/23 11:53:03;;;;;;;6.40;3.40;;;23.40;48.50;;;;;;220377;1267;23920;-60
2022/04/23 11:58:07;;;;;;;4.50;3.30;;;23.50;48.90;;;;;;220527;1267;25470;-61
2022/04/23 12:03:25;;;;;;;4.40;3.20;;;23.50;48.90;;;;;;220958;1267;22603;-62
2022/04/23 12:08:29;;;;;;;3.70;3.00;;;23.50;48.60;;;;;;220600;1267;22749;-60
2022/04/23 12:13:35;;;;;;;4.50;3.10;;;23.50;48.60;;;;;;220440;1268;22595;-59
2022/04/23 12:18:40;;;;;;;4.00;3.00;;;23.50;48.80;;;;;;220766;1268;22714;-61
2022/04/23 12:23:43;;;;;;;6.10;3.30;;;23.50;49.30;;;;;;220654;1268;22539;-60
2022/04/23 12:45:21;;;;;;;3.80;3.00;;;23.50;48.70;;;;;;220407;1267;25496;-59
2022/04/23 12:50:29;;;;;;;4.60;3.40;;;23.50;48.80;;;;;;220514;1267;23957;-60
2022/04/23 12:55:37;;;;;;;4.10;3.10;;;23.50;49.10;;;;;;220683;1267;22710;-62
2022/04/23 13:00:45;;;;;;;5.10;3.10;;;23.50;48.80;;;;;;220655;1267;22549;-60
2022/04/23 13:05:48;;;;;;;5.30;3.30;;;23.50;48.80;;;;;;220568;1267;24614;-61
2022/04/23 13:10:52;;;;;;;4.20;2.90;;;23.50;48.80;;;;;;220861;1267;24444;-62
2022/04/23 13:15:56;;;;;;;4.40;3.10;;;23.50;48.80;;;;;;220308;1267;24116;-60
2022/04/23 13:21:00;;;;;;;4.30;3.00;;;23.50;49.10;;;;;;220921;1267;22701;-61
2022/04/23 13:26:04;;;;;;;3.90;3.00;;;23.50;48.80;;;;;;220641;1267;24198;-59
2022/04/23 13:31:09;;;;;;;4.40;3.30;;;23.50;48.80;;;;;;220815;1267;25391;-59
2022/04/23 13:36:13;;;;;;;4.30;3.20;;;23.50;48.40;;;;;;220322;1268;24383;-60
2022/04/23 13:41:18;;;;;;;4.30;3.10;;;23.50;48.90;;;;;;220537;1267;25066;-60
2022/04/23 13:46:21;;;;;;;4.90;3.00;;;23.50;48.90;;;;;;220235;1267;25354;-61
2022/04/23 13:51:26;;;;;;;3.40;2.90;;;23.50;48.90;;;;;;220467;1267;22634;-59
2022/04/23 13:56:29;;;;;;;4.30;3.30;;;23.50;49.50;;;;;;220271;1267;22596;-58
2022/04/23 14:01:34;;;;;;;4.40;3.10;;;23.50;48.90;;;;;;220362;1268;23989;-52
2022/04/23 14:12:17;;;;;;;3.50;2.50;;;23.60;49.00;;;;;;220269;1267;23434;-53
2022/04/23 14:17:20;;;;;;;6.90;2.90;;;23.60;49.50;;;;;;220077;1269;22556;-51
2022/04/23 14:22:24;;;;;;;4.30;2.70;;;23.80;49.20;;;;;;220046;1267;23724;-52
2022/04/23 14:27:29;;;;;;;4.20;3.10;;;23.90;49.10;;;;;;220247;1267;22552;-50
2022/04/23 14:32:33;;;;;;;5.60;3.10;;;23.90;49.00;;;;;;220429;1267;22544;-47
2022/04/23 14:37:36;;;;;;;4.90;2.90;;;23.90;48.90;;;;;;220463;1267;22552;-50
2022/04/23 14:42:41;;;;;;;5.50;3.00;;;23.90;49.20;;;;;;220100;1266;24075;-52
2022/04/23 14:47:45;;;;;;;5.90;3.40;;;23.80;49.50;;;;;;220578;1267;22541;-52
2022/04/23 14:53:11;;;;;;;5.80;3.00;;;23.70;49.50;;;;;;220713;1266;24361;-55
2022/04/23 14:58:16;;;;;;;4.00;3.20;;;23.70;49.30;;;;;;220364;1267;24434;-50
2022/04/23 15:03:20;;;;;;;4.60;3.40;;;23.60;48.40;;;;;;220246;1268;24221;-53
2022/04/23 15:08:24;;;;;;;5.80;3.20;;;23.70;48.10;;;;;;220451;1268;22566;-56
2022/04/23 15:13:28;;;;;;;5.60;3.50;;;23.60;48.40;;;;;;220244;1267;22564;-54
2022/04/23 15:18:32;;;;;;;4.90;2.50;;;23.60;48.30;;;;;;220451;1267;22592;-54
2022/04/23 15:23:36;;;;;;;5.20;3.00;;;23.60;48.40;;;;;;220612;1267;25157;-53
2022/04/23 15:28:40;;;;;;;5.30;3.10;;;23.60;48.50;;;;;;220738;1267;24197;-65
2022/04/23 15:33:45;;;;;;;8.00;3.60;;;23.60;48.80;;;;;;220880;1267;25383;-67
2022/04/23 15:38:48;;;;;;;6.50;3.20;;;23.60;49.10;;;;;;220541;1266;22616;-61
2022/04/23 15:43:52;;;;;;;4.80;3.40;;;23.60;49.20;;;;;;220702;1267;23150;-58
2022/04/23 15:48:56;;;;;;;5.60;3.20;;;23.50;49.30;;;;;;220731;1267;22632;-60
2022/04/23 15:54:00;;;;;;;7.80;3.50;;;23.40;49.60;;;;;;220198;1267;25365;-56
2022/04/23 15:59:03;;;;;;;5.60;3.90;;;23.30;48.00;;;;;;220536;1267;22615;-57
2022/04/23 16:04:08;;;;;;;6.70;3.10;;;23.30;45.30;;;;;;220199;1267;24170;-56
2022/04/23 16:09:12;;;;;;;9.00;3.60;;;23.30;44.80;;;;;;220373;1267;24293;-56
2022/04/23 16:14:16;;;;;;;8.90;3.60;;;23.40;45.80;;;;;;220406;1267;25180;-53
2022/04/23 16:19:40;;;;;;;17.50;3.80;;;23.40;45.90;;;;;;220437;1267;24273;-51
2022/04/23 16:24:46;;;;;;;11.80;3.60;;;23.50;47.00;;;;;;220060;1267;470975;-56
2022/04/23 16:29:51;;;;;;;11.10;3.60;;;23.50;47.60;;;;;;220499;1267;22569;-53
2022/04/23 16:34:54;;;;;;;12.80;4.00;;;23.50;48.10;;;;;;220348;1267;24415;-56
2022/04/23 16:50:43;;;;;;;7.20;3.90;;;23.50;48.30;;;;;;220279;1267;25718;-53
2022/04/23 16:55:48;;;;;;;11.60;3.70;;;23.50;48.20;;;;;;220713;1267;25104;-56
2022/04/23 17:01:00;;;;;;;6.20;3.50;;;23.50;48.50;;;;;;220571;1267;22537;-57
2022/04/23 17:06:05;;;;;;;9.70;3.60;;;23.50;48.40;;;;;;220842;1267;22546;-60
2022/04/23 17:11:11;;;;;;;10.70;3.50;;;23.50;48.60;;;;;;220621;1267;22525;-60
2022/04/23 17:16:18;;;;;;;13.30;3.10;;;23.50;48.60;;;;;;220781;1267;24458;-63
2022/04/23 17:21:22;;;;;;;16.50;3.80;;;23.50;48.90;;;;;;220752;1267;25897;-63
2022/04/23 17:26:31;;;;;;;18.80;3.80;;;23.50;48.40;;;;;;220340;1266;24271;-63
2022/04/23 17:31:34;;;;;;;16.60;4.10;;;23.50;49.20;;;;;;220339;1267;22657;-65
2022/04/23 17:36:38;;;;;;;10.20;3.60;;;23.50;49.30;;;;;;220662;1267;25316;-64
2022/04/23 17:41:45;;;;;;;8.80;4.30;;;23.50;49.10;;;;;;220388;1268;24351;-61
2022/04/23 17:46:53;;;;;;;13.80;3.50;;;23.40;49.20;;;;;;220518;1267;24227;-62
2022/04/23 17:51:56;;;;;;;10.00;3.90;;;23.40;49.10;;;;;;220481;1267;22983;-52
2022/04/23 17:57:03;;;;;;;9.60;3.70;;;23.40;49.10;;;;;;220881;1267;22649;-56
2022/04/23 18:07:34;;;;;;;11.60;4.20;;;23.40;49.80;;;;;;220291;1267;24645;-57
2022/04/23 18:12:46;;;;;;;8.20;4.20;;;23.30;50.50;;;;;;220376;1267;25459;-56
2022/04/23 18:17:50;;;;;;;12.90;4.30;;;23.30;50.80;;;;;;220482;1265;24376;-57
2022/04/23 18:22:54;;;;;;;8.90;4.30;;;23.30;51.00;;;;;;220258;1267;22696;-57
2022/04/23 18:27:59;;;;;;;9.00;4.20;;;23.40;51.00;;;;;;220631;1267;24260;-55
2022/04/23 18:33:04;;;;;;;7.60;4.30;;;23.40;50.70;;;;;;220480;1270;22685;-57
2022/04/23 18:38:12;;;;;;;12.10;4.70;;;23.40;51.00;;;;;;220410;1267;23539;-55
2022/04/23 18:43:15;;;;;;;9.70;4.20;;;23.40;51.40;;;;;;220602;1267;22566;-58
2022/04/23 18:48:20;;;;;;;21.70;5.00;;;23.30;51.50;;;;;;219896;1267;24896;-57
2022/04/23 18:53:29;;;;;;;12.50;4.00;;;23.40;51.90;;;;;;220856;1267;25239;-58
2022/04/23 18:58:34;;;;;;;8.70;4.40;;;23.30;51.50;;;;;;220746;1265;22645;-56
2022/04/23 19:03:38;;;;;;;10.80;4.30;;;23.30;51.50;;;;;;220434;1268;22555;-56
2022/04/23 19:08:41;;;;;;;11.50;4.40;;;23.30;51.30;;;;;;220201;1267;26709;-58
2022/04/23 19:13:47;;;;;;;12.20;4.60;;;23.20;51.40;;;;;;220354;1267;22818;-59
2022/04/23 19:18:56;;;;;;;11.40;4.60;;;23.30;51.20;;;;;;220470;1267;22740;-59
2022/04/23 19:29:26;;;;;;;8.40;4.20;;;23.20;51.00;;;;;;220421;1267;22546;-58
2022/04/23 19:34:30;;;;;;;14.20;5.20;;;23.20;50.80;;;;;;220392;1267;24278;-58
2022/04/23 19:39:34;;;;;;;15.30;4.40;;;23.20;52.10;;;;;;220594;1267;24214;-58
2022/04/23 19:44:41;;;;;;;17.60;4.70;;;23.20;52.00;;;;;;220942;1267;22565;-57
2022/04/23 19:49:46;;;;;;;11.90;4.60;;;23.20;51.90;;;;;;220641;1266;22817;-58
2022/04/23 19:54:54;;;;;;;11.30;4.80;;;23.10;51.50;;;;;;220465;1267;23146;-56
2022/04/23 20:00:01;;;;;;;13.80;5.30;;;23.10;51.30;;;;;;220426;1267;22815;-56
2022/04/23 20:05:17;;;;;;;14.50;5.80;;;23.00;51.60;;;;;;221356;1267;22688;-57
2022/04/23 20:10:22;;;;;;;11.20;6.00;;;23.00;51.00;;;;;;220547;1267;22689;-59
2022/04/23 20:15:29;;;;;;;18.90;6.00;;;23.00;50.70;;;;;;220234;1267;25346;-53
2022/04/23 20:20:34;;;;;;;12.50;6.40;;;22.90;50.70;;;;;;220798;1267;24246;-57
2022/04/23 20:25:39;;;;;;;15.50;7.10;;;22.90;50.20;;;;;;220405;1267;22558;-56
2022/04/23 20:30:47;;;;;;;17.60;7.50;;;22.90;50.10;;;;;;220112;1266;22570;-55
2022/04/23 20:41:16;;;;;;;14.00;8.80;;;22.90;49.80;;;;;;220371;1267;24422;-56
2022/04/23 20:46:21;;;;;;;12.80;7.80;;;22.90;49.70;;;;;;219908;1267;22607;-56
2022/04/23 20:51:27;;;;;;;15.60;7.90;;;22.80;49.70;;;;;;220083;1270;23390;-57
2022/04/23 20:56:31;;;;;;;15.80;8.50;;;22.80;49.60;;;;;;220264;1267;22704;-55
2022/04/23 21:01:38;;;;;;;12.70;8.10;;;22.80;49.70;;;;;;220529;1267;22582;-56
2022/04/23 21:06:42;;;;;;;13.10;8.80;;;22.70;49.50;;;;;;220228;1267;22535;-56
2022/04/23 21:11:49;;;;;;;14.10;9.10;;;22.80;49.50;;;;;;220815;1267;22698;-57
2022/04/23 21:16:56;;;;;;;16.20;9.20;;;22.70;49.50;;;;;;220552;1267;24269;-55
2022/04/23 21:22:00;;;;;;;15.20;8.50;;;22.70;49.30;;;;;;220254;1266;22759;-55
2022/04/23 21:27:05;;;;;;;14.10;9.40;;;22.70;49.20;;;;;;220219;1267;22547;-55
2022/04/23 21:32:11;;;;;;;17.60;9.80;;;22.60;49.20;;;;;;220683;1267;23146;-55
2022/04/23 21:37:15;;;;;;;17.30;9.80;;;22.60;49.10;;;;;;220575;1267;24238;-54
2022/04/23 21:47:45;;;;;;;17.50;10.60;;;22.60;49.10;;;;;;219985;1267;22528;-54
2022/04/23 21:52:50;;;;;;;14.10;9.30;;;22.60;49.00;;;;;;220213;1267;24681;-55
2022/04/23 21:57:56;;;;;;;17.50;10.70;;;22.60;49.00;;;;;;221028;1267;22553;-56
2022/04/23 22:03:06;;;;;;;19.50;10.10;;;22.50;48.80;;;;;;220324;1267;24445;-57
2022/04/23 22:08:13;;;;;;;28.80;12.70;;;22.50;48.80;;;;;;220515;1267;25312;-56
2022/04/23 22:13:22;;;;;;;19.20;10.60;;;22.50;49.50;;;;;;221330;1268;25358;-57
2022/04/23 22:18:26;;;;;;;19.00;11.20;;;22.50;50.90;;;;;;220778;1267;22639;-57
2022/04/23 22:23:35;;;;;;;19.40;10.80;;;22.50;50.90;;;;;;220419;1267;24298;-59
2022/04/23 22:29:04;;;;;;;20.40;10.50;;;22.50;50.90;;;;;;220685;1266;22544;-57
2022/04/23 22:34:08;;;;;;;19.90;10.50;;;22.40;50.30;;;;;;220775;1267;23899;-56
2022/04/23 22:39:12;;;;;;;18.40;10.60;;;22.40;51.20;;;;;;220635;1267;22576;-57
2022/04/23 22:44:16;;;;;;;17.70;10.90;;;22.30;50.90;;;;;;220699;1267;22688;-58
2022/04/23 22:49:20;;;;;;;17.40;10.50;;;22.30;51.00;;;;;;220452;1268;24268;-57
2022/04/23 22:54:23;;;;;;;23.80;10.90;;;22.40;53.70;;;;;;220538;1267;22535;-60
2022/04/23 22:59:33;;;;;;;19.30;9.20;;;22.50;53.80;;;;;;220311;1267;23047;-67
2022/04/23 23:04:39;;;;;;;21.90;10.20;;;22.90;52.90;;;;;;220202;1267;24281;-66
2022/04/23 23:09:43;;;;;;;16.60;9.50;;;23.10;52.30;;;;;;220628;1267;25426;-68
2022/04/23 23:14:47;;;;;;;17.80;9.90;;;23.30;52.30;;;;;;220811;1268;24256;-68
2022/04/23 23:19:53;;;;;;;18.00;9.80;;;23.50;52.00;;;;;;220306;1270;22642;-67
2022/04/23 23:25:05;;;;;;;17.60;9.60;;;23.60;51.60;;;;;;220761;1267;24290;-66
2022/04/23 23:30:14;;;;;;;16.30;9.60;;;23.70;51.20;;;;;;220270;1270;24958;-68
2022/04/23 23:35:21;;;;;;;15.80;9.80;;;23.80;50.90;;;;;;220261;1268;24390;-69
2022/04/23 23:40:27;;;;;;;14.90;9.00;;;23.90;50.80;;;;;;220514;1267;24227;-67
2022/04/23 23:45:37;;;;;;;13.90;9.30;;;23.90;50.60;;;;;;220112;1267;24316;-69
2022/04/23 23:50:45;;;;;;;15.50;9.50;;;24.00;50.40;;;;;;220134;1267;22527;-68
2022/04/23 23:55:51;;;;;;;14.30;9.80;;;23.90;50.40;;;;;;220010;1270;24349;-67
